Time;durP1;ratioP1;P1;durP2;ratioP2;P2;SDS_P1;SDS_P2;PMS_P1;PMS_P2;Temp;Humidity;BMP_temperature;BMP_pressure;BME280_temperature;BME280_humidity;BME280_pressure;Samples;Min_cycle;Max_cycle;Signal;HPM_P1;HPM_P2
2024/04/12 00:02:03;;;;;;;0.85;0.77;;;13.70;58.70;;;;;;5379945;26;20004;-72
2024/04/12 00:04:29;;;;;;;0.73;0.43;;;13.70;58.90;;;;;;5380209;26;20073;-76
2024/04/12 00:07:00;;;;;;;0.90;0.57;;;13.70;58.80;;;;;;5378363;26;20000;-76
2024/04/12 00:09:29;;;;;;;2.33;1.25;;;13.70;59.10;;;;;;5381093;26;20437;-76
2024/04/12 00:12:00;;;;;;;2.13;1.17;;;13.60;59.20;;;;;;5379835;26;20457;-71
2024/04/12 00:14:27;;;;;;;2.92;0.95;;;13.70;59.30;;;;;;5378951;26;20103;-71
2024/04/12 00:16:54;;;;;;;0.45;0.30;;;13.70;59.30;;;;;;5379852;26;19996;-76
2024/04/12 00:22:09;;;;;;;0.47;0.47;;;13.60;59.20;;;;;;5379577;26;20333;-76
2024/04/12 00:24:36;;;;;;;5.90;1.38;;;13.50;58.80;;;;;;5380843;26;20461;-71
2024/04/12 00:27:05;;;;;;;0.73;0.50;;;13.50;58.80;;;;;;5379774;26;20341;-71
2024/04/12 00:29:36;;;;;;;0.93;0.73;;;13.50;58.80;;;;;;5378559;26;20022;-71
2024/04/12 00:32:19;;;;;;;4.55;1.45;;;13.40;58.80;;;;;;5379602;26;20334;-76
2024/04/12 00:34:47;;;;;;;0.50;0.43;;;13.20;58.70;;;;;;5378645;26;20073;-71
2024/04/12 00:37:16;;;;;;;0.35;0.35;;;13.20;58.50;;;;;;5379254;26;20018;-71
2024/04/12 00:40:07;;;;;;;1.30;0.60;;;13.00;59.00;;;;;;5378301;26;20073;-76
2024/04/12 00:42:35;;;;;;;0.50;0.50;;;12.90;59.50;;;;;;5379779;26;20012;-71
2024/04/12 00:45:02;;;;;;;1.30;1.10;;;12.80;59.90;;;;;;5380017;26;20077;-71
2024/04/12 00:47:31;;;;;;;0.82;0.60;;;12.80;59.80;;;;;;5379644;26;20000;-71
2024/04/12 00:50:00;;;;;;;1.58;0.63;;;12.90;59.90;;;;;;5378653;26;20006;-71
2024/04/12 00:52:27;;;;;;;1.10;0.35;;;12.90;59.90;;;;;;5378009;26;20044;-76
2024/04/12 00:55:14;;;;;;;0.30;0.30;;;12.90;59.70;;;;;;5377958;26;20329;-71
2024/04/12 00:57:41;;;;;;;0.90;0.60;;;12.90;59.60;;;;;;5379927;26;20398;-76
2024/04/12 01:03:15;;;;;;;1.40;0.93;;;13.00;60.20;;;;;;5379788;26;20037;-74
2024/04/12 01:05:42;;;;;;;0.80;0.65;;;12.90;59.70;;;;;;5379724;26;19996;-71
2024/04/12 01:08:09;;;;;;;1.50;0.75;;;12.90;60.20;;;;;;5377330;26;20007;-71
2024/04/12 01:10:37;;;;;;;1.33;0.80;;;12.80;60.20;;;;;;5377806;26;20007;-72
2024/04/12 01:13:05;;;;;;;0.82;0.60;;;12.80;60.50;;;;;;5379271;26;20004;-71
2024/04/12 01:18:22;;;;;;;3.63;1.45;;;12.80;60.20;;;;;;5377927;26;20077;-71
2024/04/12 01:20:49;;;;;;;1.63;1.42;;;12.80;60.50;;;;;;5378759;26;20022;-71
2024/04/12 01:23:17;;;;;;;0.95;0.70;;;12.70;60.20;;;;;;5378661;26;19996;-71
2024/04/12 01:25:44;;;;;;;1.27;0.70;;;12.70;60.30;;;;;;5378354;26;20016;-76
2024/04/12 01:28:14;;;;;;;1.23;0.63;;;12.70;60.10;;;;;;5379377;26;20004;-76
2024/04/12 01:30:40;;;;;;;1.77;1.23;;;12.70;59.90;;;;;;5376978;26;20078;-71
2024/04/12 01:33:08;;;;;;;0.98;0.60;;;12.70;60.20;;;;;;5378854;26;19992;-71
2024/04/12 01:35:35;;;;;;;0.20;0.20;;;12.60;59.90;;;;;;5377289;26;20069;-71
2024/04/12 01:38:21;;;;;;;1.05;0.50;;;12.60;60.20;;;;;;5379241;26;20000;-76
2024/04/12 01:41:08;;;;;;;4.80;1.13;;;12.50;60.50;;;;;;5347893;26;19996;-71
2024/04/12 01:43:59;;;;;;;1.85;1.10;;;12.40;60.20;;;;;;5377486;26;20032;-71
2024/04/12 01:49:11;;;;;;;0.98;0.30;;;12.40;60.30;;;;;;5378101;26;20037;-76
2024/04/12 01:51:40;;;;;;;0.43;0.43;;;12.30;60.30;;;;;;5377264;26;20019;-75
2024/04/12 01:54:17;;;;;;;0.82;0.47;;;12.30;60.50;;;;;;5377777;26;20032;-70
2024/04/12 01:56:50;;;;;;;0.75;0.45;;;12.30;60.60;;;;;;5378849;26;20004;-71
2024/04/12 01:59:21;;;;;;;0.25;0.20;;;12.20;60.70;;;;;;5377875;26;20000;-71
2024/04/12 02:02:07;;;;;;;1.55;1.13;;;12.20;60.60;;;;;;5376709;26;20011;-76
2024/04/12 02:04:36;;;;;;;0.60;0.38;;;12.20;61.00;;;;;;5379877;26;20040;-76
2024/04/12 02:07:04;;;;;;;0.30;0.25;;;12.20;60.90;;;;;;5347937;26;20457;-75
2024/04/12 02:09:31;;;;;;;0.88;0.52;;;12.20;61.20;;;;;;5379035;26;20078;-76
2024/04/12 02:12:00;;;;;;;1.20;0.75;;;12.20;61.20;;;;;;5347765;26;19997;-71
2024/04/12 02:14:28;;;;;;;2.17;1.20;;;12.10;62.00;;;;;;5378832;26;20428;-76
2024/04/12 02:16:55;;;;;;;7.53;2.50;;;12.10;61.40;;;;;;5378387;26;20008;-71
2024/04/12 02:19:22;;;;;;;0.82;0.57;;;12.10;61.60;;;;;;5379003;26;20007;-76
2024/04/12 02:21:48;;;;;;;0.88;0.60;;;12.10;61.50;;;;;;5375804;26;20011;-71
2024/04/12 02:24:17;;;;;;;1.15;1.02;;;12.10;61.00;;;;;;5378861;26;20325;-70
2024/04/12 02:26:48;;;;;;;2.20;0.90;;;12.10;61.20;;;;;;5378482;26;20007;-71
2024/04/12 02:29:15;;;;;;;0.68;0.60;;;12.00;61.60;;;;;;5376045;26;20309;-70
2024/04/12 02:31:41;;;;;;;1.58;0.68;;;12.00;61.70;;;;;;5377643;26;20004;-76
2024/04/12 02:34:11;;;;;;;4.00;1.88;;;12.00;61.50;;;;;;5378331;26;20043;-71
2024/04/12 02:36:37;;;;;;;1.45;1.10;;;12.00;61.70;;;;;;5376758;26;20388;-74
2024/04/12 02:39:08;;;;;;;2.47;0.85;;;12.00;61.50;;;;;;5376040;26;20482;-71
2024/04/12 02:41:37;;;;;;;1.05;0.77;;;11.90;61.70;;;;;;5377926;26;20443;-76
2024/04/12 02:44:06;;;;;;;1.67;0.73;;;12.00;61.90;;;;;;5378470;26;20262;-76
2024/04/12 02:46:33;;;;;;;1.40;1.13;;;11.90;62.10;;;;;;5378245;26;20045;-75
2024/04/12 02:49:04;;;;;;;1.45;0.63;;;11.90;62.90;;;;;;5375849;26;20563;-71
2024/04/12 02:51:31;;;;;;;1.40;0.57;;;11.90;62.10;;;;;;5377830;26;20000;-71
2024/04/12 02:53:58;;;;;;;1.20;0.70;;;11.90;62.10;;;;;;5375736;26;20014;-75
2024/04/12 02:56:26;;;;;;;1.05;0.63;;;11.80;62.20;;;;;;5376263;26;20000;-71
2024/04/12 02:58:53;;;;;;;0.73;0.50;;;11.80;62.30;;;;;;5378101;26;20016;-73
2024/04/12 03:01:23;;;;;;;2.17;1.40;;;11.80;62.90;;;;;;5377802;26;20000;-70
2024/04/12 03:04:10;;;;;;;0.65;0.45;;;11.70;62.70;;;;;;5381294;26;19997;-75
2024/04/12 03:06:38;;;;;;;1.33;0.60;;;11.80;62.70;;;;;;5379628;26;20011;-75
2024/04/12 03:09:05;;;;;;;0.70;0.40;;;11.80;62.70;;;;;;5381190;26;20028;-75
2024/04/12 03:14:18;;;;;;;4.67;1.67;;;11.90;62.20;;;;;;5380060;26;20489;-76
2024/04/12 03:16:46;;;;;;;1.15;0.57;;;12.00;62.30;;;;;;5380355;26;20066;-71
2024/04/12 03:19:18;;;;;;;2.42;1.63;;;12.00;62.70;;;;;;5379340;26;19996;-71
2024/04/12 03:21:50;;;;;;;1.30;1.10;;;12.00;62.60;;;;;;5380557;26;20330;-76
2024/04/12 03:24:17;;;;;;;1.52;0.82;;;12.10;62.60;;;;;;5381335;26;19997;-76
2024/04/12 03:26:44;;;;;;;0.45;0.35;;;12.20;62.90;;;;;;5380834;26;19992;-75
2024/04/12 03:29:12;;;;;;;1.10;0.68;;;12.30;63.20;;;;;;5350345;26;20454;-76
2024/04/12 03:31:39;;;;;;;2.45;1.60;;;12.30;63.00;;;;;;5377781;26;20362;-71
2024/04/12 03:42:04;;;;;;;1.13;0.77;;;12.50;62.70;;;;;;5379845;26;20012;-76
2024/04/12 03:44:32;;;;;;;2.92;1.02;;;12.60;62.70;;;;;;5378898;26;20012;-71
2024/04/12 03:47:02;;;;;;;3.97;1.13;;;12.50;63.60;;;;;;5377684;26;19996;-71
2024/04/12 03:49:29;;;;;;;1.00;0.68;;;12.60;63.20;;;;;;5380423;26;19993;-71
2024/04/12 03:51:57;;;;;;;0.82;0.43;;;12.60;62.80;;;;;;5378270;26;20073;-71
2024/04/12 03:54:27;;;;;;;1.67;1.13;;;12.60;62.70;;;;;;5380226;26;20024;-76
2024/04/12 03:56:57;;;;;;;1.33;0.90;;;12.60;63.10;;;;;;5378521;26;20399;-71
2024/04/12 03:59:43;;;;;;;1.58;0.80;;;12.60;63.20;;;;;;5379093;26;20066;-75
2024/04/12 04:02:11;;;;;;;0.88;0.77;;;12.50;63.20;;;;;;5377935;26;20333;-71
2024/04/12 04:07:27;;;;;;;1.20;0.75;;;12.40;63.00;;;;;;5379251;26;20051;-71
2024/04/12 04:09:57;;;;;;;0.22;0.20;;;12.30;63.40;;;;;;5380902;26;19996;-71
2024/04/12 04:12:24;;;;;;;0.95;0.50;;;12.30;63.50;;;;;;5377243;26;20004;-76
2024/04/12 04:14:55;;;;;;;0.38;0.38;;;12.20;63.50;;;;;;5380303;26;20512;-76
2024/04/12 04:20:10;;;;;;;0.85;0.40;;;12.20;64.10;;;;;;5380103;26;20449;-74
2024/04/12 04:25:07;;;;;;;0.63;0.32;;;12.10;64.30;;;;;;5380021;26;20000;-71
2024/04/12 04:27:34;;;;;;;1.02;0.55;;;12.00;64.50;;;;;;5380545;26;20000;-76
2024/04/12 04:30:02;;;;;;;1.35;0.85;;;12.10;64.80;;;;;;5379017;26;20010;-76
2024/04/12 04:32:29;;;;;;;1.05;0.65;;;12.00;63.90;;;;;;5379633;26;20077;-76
2024/04/12 04:35:05;;;;;;;1.98;1.02;;;12.00;64.00;;;;;;5380174;26;19996;-76
2024/04/12 04:37:39;;;;;;;1.70;0.60;;;11.90;64.30;;;;;;5380392;26;20582;-71
2024/04/12 04:42:54;;;;;;;1.30;0.65;;;11.90;63.90;;;;;;5378961;26;20018;-76
2024/04/12 04:45:22;;;;;;;3.20;1.75;;;11.90;63.40;;;;;;5377944;26;20038;-76
2024/04/12 04:47:49;;;;;;;7.05;1.80;;;11.80;63.10;;;;;;5377629;26;20069;-76
2024/04/12 04:50:18;;;;;;;0.90;0.85;;;11.80;63.30;;;;;;5347981;26;20007;-76
2024/04/12 04:52:44;;;;;;;0.77;0.43;;;11.80;63.50;;;;;;5377601;26;20000;-71
2024/04/12 04:57:57;;;;;;;0.80;0.50;;;11.80;63.60;;;;;;5379731;26;20081;-76
2024/04/12 05:00:24;;;;;;;1.35;1.02;;;11.80;63.90;;;;;;5379196;26;20027;-74
2024/04/12 05:02:52;;;;;;;0.43;0.32;;;11.80;63.70;;;;;;5377473;26;20065;-71
2024/04/12 05:08:08;;;;;;;1.75;0.63;;;11.80;64.60;;;;;;5378562;26;20506;-76
2024/04/12 05:10:35;;;;;;;0.75;0.45;;;11.90;64.60;;;;;;5349111;26;20015;-77
2024/04/12 05:13:03;;;;;;;2.03;1.42;;;11.90;64.50;;;;;;5377663;26;20020;-71
2024/04/12 05:15:49;;;;;;;0.90;0.70;;;11.90;64.60;;;;;;5377520;26;20077;-71
2024/04/12 05:18:16;;;;;;;1.55;0.82;;;11.90;64.90;;;;;;5379864;26;20717;-71
2024/04/12 05:20:47;;;;;;;2.00;0.98;;;11.90;64.90;;;;;;5377245;26;20019;-75
2024/04/12 05:23:17;;;;;;;1.85;1.00;;;12.00;65.10;;;;;;5348370;26;19996;-72
2024/04/12 05:25:46;;;;;;;2.28;1.17;;;12.00;65.30;;;;;;5377986;26;20035;-71
2024/04/12 05:28:12;;;;;;;0.80;0.40;;;12.10;65.40;;;;;;5377635;26;19996;-76
2024/04/12 05:30:44;;;;;;;1.98;0.82;;;12.10;65.40;;;;;;5377434;26;20026;-71
2024/04/12 05:33:16;;;;;;;0.80;0.60;;;12.10;65.50;;;;;;5349538;26;20317;-76
2024/04/12 05:35:45;;;;;;;0.90;0.82;;;12.20;65.20;;;;;;5378122;26;20082;-70
2024/04/12 05:38:12;;;;;;;0.77;0.60;;;12.30;65.30;;;;;;5377460;26;19996;-76
2024/04/12 05:41:00;;;;;;;1.17;0.73;;;12.40;65.40;;;;;;5378749;26;20015;-71
2024/04/12 05:43:29;;;;;;;1.23;0.93;;;12.40;65.70;;;;;;5377867;26;20004;-71
2024/04/12 05:45:57;;;;;;;0.50;0.30;;;12.50;65.80;;;;;;5377509;26;20012;-71
2024/04/12 05:48:25;;;;;;;4.25;0.95;;;12.60;66.10;;;;;;5378869;26;20039;-76
2024/04/12 05:53:40;;;;;;;0.45;0.40;;;12.70;65.30;;;;;;5378893;26;20086;-71
2024/04/12 05:58:56;;;;;;;2.15;0.98;;;12.90;64.80;;;;;;5378899;26;20015;-75
2024/04/12 06:01:25;;;;;;;1.10;0.60;;;13.10;64.60;;;;;;5376471;26;20004;-75
2024/04/12 06:03:54;;;;;;;1.17;0.75;;;13.10;64.10;;;;;;5377265;26;20000;-71
2024/04/12 06:06:21;;;;;;;0.57;0.50;;;13.20;63.90;;;;;;5378904;26;20003;-76
2024/04/12 06:08:48;;;;;;;0.77;0.52;;;13.30;63.90;;;;;;5379209;26;20032;-71
2024/04/12 06:11:16;;;;;;;1.73;0.77;;;13.40;63.50;;;;;;5378422;26;19997;-76
2024/04/12 06:13:47;;;;;;;1.40;0.90;;;13.50;63.10;;;;;;5376957;26;20084;-76
2024/04/12 06:16:15;;;;;;;1.75;0.80;;;13.60;62.70;;;;;;5348881;26;20031;-76
2024/04/12 06:18:42;;;;;;;2.00;1.27;;;13.80;62.90;;;;;;5378793;26;20011;-71
2024/04/12 06:21:10;;;;;;;0.73;0.50;;;13.90;62.30;;;;;;5361728;26;20001;-76
2024/04/12 06:23:37;;;;;;;0.93;0.63;;;14.00;62.50;;;;;;5354845;26;20008;-76
2024/04/12 06:26:05;;;;;;;2.92;1.42;;;14.20;62.30;;;;;;5369671;26;19997;-71
2024/04/12 06:28:32;;;;;;;2.03;0.98;;;14.30;62.70;;;;;;5371015;26;20000;-71
2024/04/12 06:30:59;;;;;;;1.85;0.68;;;14.50;62.60;;;;;;5377490;26;20321;-71
2024/04/12 06:33:28;;;;;;;1.10;0.65;;;14.60;62.70;;;;;;5375951;26;19996;-76
2024/04/12 06:36:04;;;;;;;0.68;0.45;;;14.80;62.40;;;;;;5380443;26;20007;-76
2024/04/12 06:38:35;;;;;;;0.85;0.65;;;14.90;63.40;;;;;;5380385;26;20000;-76
2024/04/12 06:41:03;;;;;;;0.60;0.50;;;15.10;62.40;;;;;;5378813;26;20012;-76
2024/04/12 06:43:33;;;;;;;0.85;0.55;;;15.30;62.30;;;;;;5350867;26;20020;-71
2024/04/12 06:46:18;;;;;;;0.73;0.55;;;15.40;62.30;;;;;;5381525;26;20334;-76
2024/04/12 06:48:49;;;;;;;2.88;0.73;;;15.60;61.00;;;;;;5351033;26;19997;-75
2024/04/12 06:51:16;;;;;;;1.85;1.20;;;15.70;58.80;;;;;;5380723;26;20007;-71
2024/04/12 06:53:47;;;;;;;0.20;0.20;;;15.90;57.70;;;;;;5381521;26;20001;-71
2024/04/12 06:56:20;;;;;;;2.08;0.82;;;16.00;55.70;;;;;;5381522;26;19996;-71
2024/04/12 06:58:48;;;;;;;1.75;0.50;;;16.20;55.80;;;;;;5379964;26;20062;-76
2024/04/12 07:01:21;;;;;;;2.40;0.82;;;16.30;55.20;;;;;;5378430;26;20118;-76
2024/04/12 07:03:49;;;;;;;0.52;0.50;;;16.50;54.60;;;;;;5379836;26;20347;-76
2024/04/12 07:06:18;;;;;;;3.38;1.45;;;16.70;52.90;;;;;;5350370;26;20000;-76
2024/04/12 07:08:49;;;;;;;0.45;0.20;;;16.80;50.90;;;;;;5379397;26;20000;-76
2024/04/12 07:11:39;;;;;;;0.55;0.30;;;17.00;51.60;;;;;;5350778;26;19993;-71
2024/04/12 07:14:07;;;;;;;0.52;0.30;;;17.30;50.30;;;;;;5351388;26;20019;-76
2024/04/12 07:16:35;;;;;;;2.58;1.05;;;17.60;48.60;;;;;;5380951;26;20128;-71
2024/04/12 07:19:23;;;;;;;0.70;0.43;;;17.90;46.90;;;;;;5379232;26;20000;-71
2024/04/12 07:21:54;;;;;;;0.20;0.20;;;18.50;47.40;;;;;;5378478;26;20453;-71
2024/04/12 07:24:25;;;;;;;1.25;0.60;;;18.80;44.20;;;;;;5351114;26;20012;-76
2024/04/12 07:26:55;;;;;;;0.82;0.57;;;19.30;43.90;;;;;;5380817;26;20429;-71
2024/04/12 07:29:22;;;;;;;0.17;0.17;;;19.80;41.50;;;;;;5379419;26;20001;-76
2024/04/12 07:31:53;;;;;;;0.10;0.10;;;20.30;40.30;;;;;;5378402;26;20015;-71
2024/04/12 07:34:20;;;;;;;0.45;0.32;;;20.70;38.50;;;;;;5379434;26;19996;-72
2024/04/12 07:36:47;;;;;;;0.65;0.65;;;21.20;37.20;;;;;;5380291;26;20314;-72
2024/04/12 07:39:15;;;;;;;0.47;0.22;;;21.60;35.80;;;;;;5381168;26;19997;-76
2024/04/12 07:42:08;;;;;;;0.60;0.35;;;22.10;35.00;;;;;;5378937;26;20015;-72
2024/04/12 07:44:35;;;;;;;0.88;0.40;;;22.80;35.70;;;;;;5381375;26;20018;-76
2024/04/12 07:47:06;;;;;;;0.40;0.40;;;23.50;33.80;;;;;;5379172;26;20008;-76
2024/04/12 07:49:40;;;;;;;0.98;0.73;;;24.10;32.20;;;;;;5379807;26;20004;-72
2024/04/12 07:52:09;;;;;;;1.42;0.50;;;24.60;30.00;;;;;;5380304;26;20007;-76
2024/04/12 07:54:37;;;;;;;0.75;0.52;;;24.70;29.30;;;;;;5350815;26;20077;-76
2024/04/12 07:57:07;;;;;;;0.43;0.43;;;24.70;29.80;;;;;;5380514;26;20069;-76
2024/04/12 07:59:37;;;;;;;2.15;1.10;;;25.00;29.60;;;;;;5381168;26;20000;-76
2024/04/12 08:02:17;;;;;;;0.30;0.30;;;25.50;29.60;;;;;;5379720;26;20008;-72
2024/04/12 08:04:45;;;;;;;0.40;0.32;;;25.80;27.80;;;;;;5379242;26;20077;-73
2024/04/12 08:07:18;;;;;;;0.25;0.22;;;26.10;27.70;;;;;;5378281;26;20001;-77
2024/04/12 08:09:46;;;;;;;0.43;0.38;;;26.30;27.30;;;;;;5378898;26;20346;-76
2024/04/12 08:12:14;;;;;;;1.25;0.40;;;26.60;27.30;;;;;;5379673;26;20329;-76
2024/04/12 08:15:06;;;;;;;0.38;0.32;;;27.00;26.00;;;;;;5349324;26;20522;-76
2024/04/12 08:20:25;;;;;;;0.98;0.50;;;27.70;24.80;;;;;;5380008;26;20077;-76
2024/04/12 08:22:52;;;;;;;0.43;0.20;;;28.10;25.00;;;;;;5378908;26;20004;-73
2024/04/12 08:25:19;;;;;;;0.75;0.43;;;28.40;24.40;;;;;;5378521;26;19992;-76
2024/04/12 08:27:46;;;;;;;0.40;0.40;;;28.70;23.30;;;;;;5379760;26;20008;-72
2024/04/12 08:30:13;;;;;;;1.08;0.80;;;29.10;22.50;;;;;;5379247;26;19992;-76
2024/04/12 08:32:55;;;;;;;0.57;0.40;;;29.30;22.20;;;;;;5380153;26;20007;-72
2024/04/12 08:35:24;;;;;;;0.30;0.30;;;29.70;21.60;;;;;;5380419;26;20012;-75
2024/04/12 08:37:51;;;;;;;0.20;0.20;;;30.00;21.00;;;;;;5365104;26;20000;-76
2024/04/12 08:40:21;;;;;;;0.57;0.57;;;29.80;20.60;;;;;;5366028;26;20016;-72
2024/04/12 08:42:48;;;;;;;0.82;0.47;;;29.90;20.20;;;;;;5358776;26;20028;-76
2024/04/12 08:45:17;;;;;;;0.38;0.38;;;30.00;20.70;;;;;;5366158;26;20008;-76
2024/04/12 08:48:04;;;;;;;0.25;0.25;;;30.20;20.80;;;;;;5378058;26;20073;-72
2024/04/12 08:50:32;;;;;;;0.30;0.30;;;30.30;20.90;;;;;;5379754;26;20004;-73
2024/04/12 08:53:04;;;;;;;1.23;0.80;;;30.60;20.00;;;;;;5379772;26;19996;-72
2024/04/12 08:55:33;;;;;;;1.23;0.70;;;31.00;20.10;;;;;;5368374;26;20025;-75
2024/04/12 08:58:06;;;;;;;4.00;0.70;;;31.80;19.50;;;;;;5378808;26;19996;-75
2024/04/12 09:00:33;;;;;;;0.43;0.35;;;32.30;18.50;;;;;;5377942;26;20447;-75
2024/04/12 09:03:02;;;;;;;0.55;0.43;;;33.00;18.60;;;;;;5348520;26;20047;-73
2024/04/12 09:05:30;;;;;;;0.30;0.30;;;33.50;18.00;;;;;;5336289;26;20000;-75
2024/04/12 09:10:43;;;;;;;0.47;0.43;;;34.40;17.10;;;;;;5371180;26;20043;-73
2024/04/12 09:13:30;;;;;;;18.50;0.65;;;35.20;16.60;;;;;;5373014;26;19992;-73
2024/04/12 09:15:59;;;;;;;1.17;0.93;;;35.60;15.90;;;;;;5379144;26;19996;-73
2024/04/12 09:18:29;;;;;;;1.55;1.17;;;36.00;16.40;;;;;;5349064;26;20028;-75
2024/04/12 09:21:47;;;;;;;0.68;0.40;;;36.50;15.50;;;;;;5360083;26;20023;-73
2024/04/12 09:24:39;;;;;;;0.88;0.85;;;37.10;14.30;;;;;;5378262;26;20000;-73
2024/04/12 09:27:33;;;;;;;0.40;0.40;;;37.50;13.90;;;;;;5362110;26;20387;-73
2024/04/12 09:32:50;;;;;;;0.77;0.60;;;38.10;13.40;;;;;;5350758;26;20001;-73
2024/04/12 09:32:50;;;;;;;7.47;1.20;;;38.70;13.40;;;;;;5343778;26;20022;-75
2024/04/12 09:35:21;;;;;;;1.42;0.60;;;39.20;12.80;;;;;;5344395;26;20074;-75
2024/04/12 09:38:01;;;;;;;0.80;0.80;;;39.70;12.30;;;;;;5342775;26;20016;-76
2024/04/12 09:40:34;;;;;;;1.13;0.90;;;40.00;12.10;;;;;;5342435;26;19997;-73
2024/04/12 09:45:45;;;;;;;1.00;0.70;;;40.80;11.40;;;;;;5344256;26;20442;-73
2024/04/12 10:37:29;;;;;;;1.90;1.45;;;47.40;7.90;;;;;;5350324;26;20019;-75
2024/04/12 10:39:56;;;;;;;0.98;0.93;;;47.80;6.80;;;;;;5378386;26;20081;-74
2024/04/12 10:42:30;;;;;;;1.25;1.15;;;47.80;6.90;;;;;;5375358;26;20011;-73
2024/04/12 10:45:01;;;;;;;1.35;1.13;;;48.00;7.20;;;;;;5376748;26;20522;-75
2024/04/12 10:47:28;;;;;;;1.23;1.10;;;48.30;6.90;;;;;;5348024;26;20019;-73
2024/04/12 10:52:43;;;;;;;1.65;1.50;;;48.50;7.20;;;;;;5373333;26;20328;-73
2024/04/12 10:55:14;;;;;;;1.40;1.30;;;49.10;6.70;;;;;;5373431;26;19996;-73
2024/04/12 10:57:43;;;;;;;3.45;2.03;;;49.30;6.50;;;;;;5378062;26;19996;-76
2024/04/12 11:00:14;;;;;;;2.10;1.67;;;49.60;6.40;;;;;;5369476;26;20326;-73
2024/04/12 11:02:54;;;;;;;1.25;1.15;;;49.70;6.40;;;;;;5312892;26;19993;-76
2024/04/12 11:07:52;;;;;;;1.55;1.38;;;49.70;6.00;;;;;;5341195;26;20028;-75
2024/04/12 11:10:24;;;;;;;2.22;1.80;;;49.60;6.40;;;;;;5344444;26;19993;-73
2024/04/12 11:12:59;;;;;;;0.90;0.90;;;50.00;6.30;;;;;;5375555;26;20004;-72
2024/04/12 11:32:23;;;;;;;1.70;1.60;;;51.20;5.40;;;;;;5379103;26;20070;-73
2024/04/12 11:34:51;;;;;;;1.70;1.60;;;51.40;5.30;;;;;;5349108;26;20403;-76
2024/04/12 11:37:24;;;;;;;2.40;1.63;;;51.70;5.20;;;;;;5379126;26;19992;-73
2024/04/12 11:39:53;;;;;;;1.40;1.30;;;51.90;5.20;;;;;;5379314;26;20004;-76
2024/04/12 11:42:20;;;;;;;2.00;1.80;;;52.00;5.20;;;;;;5377821;26;20452;-76
2024/04/12 11:44:47;;;;;;;1.38;1.27;;;52.30;5.30;;;;;;5378979;26;20008;-76
2024/04/12 11:47:16;;;;;;;2.70;2.20;;;52.40;4.80;;;;;;5380613;26;20321;-75
2024/04/12 11:52:29;;;;;;;1.48;1.38;;;51.70;5.20;;;;;;5380127;26;20043;-73
2024/04/12 11:54:59;;;;;;;1.63;1.52;;;52.20;5.30;;;;;;5380826;26;20000;-76
2024/04/12 11:57:28;;;;;;;1.63;1.45;;;52.50;4.90;;;;;;5380620;26;20010;-76
2024/04/12 11:59:58;;;;;;;2.20;1.90;;;52.80;4.70;;;;;;5379200;26;20078;-76
2024/04/12 12:07:59;;;;;;;1.92;1.77;;;53.80;3.90;;;;;;5379204;26;20019;-76
2024/04/12 12:10:26;;;;;;;2.35;2.15;;;53.50;4.40;;;;;;5378419;26;20022;-72
2024/04/12 12:12:54;;;;;;;2.03;1.83;;;53.60;4.10;;;;;;5380393;26;20000;-76
2024/04/12 12:15:21;;;;;;;2.22;2.03;;;53.80;3.90;;;;;;5378842;26;19997;-73
2024/04/12 12:17:47;;;;;;;1.90;1.70;;;54.00;4.60;;;;;;5380037;26;19992;-76
2024/04/12 12:20:18;;;;;;;1.95;1.75;;;54.00;4.80;;;;;;5379672;26;19996;-76
2024/04/12 12:22:48;;;;;;;2.30;2.10;;;54.30;4.70;;;;;;5380386;26;20448;-76
2024/04/12 12:25:16;;;;;;;2.33;2.13;;;54.30;4.60;;;;;;5378682;26;20040;-76
2024/04/12 12:27:45;;;;;;;2.53;2.33;;;54.70;4.60;;;;;;5314358;26;20001;-76
2024/04/12 12:30:18;;;;;;;2.92;2.28;;;54.50;4.20;;;;;;5343003;26;19997;-73
2024/04/12 12:32:45;;;;;;;2.33;2.13;;;54.50;4.00;;;;;;5344420;26;20001;-73
2024/04/12 12:35:21;;;;;;;1.95;1.77;;;54.80;4.20;;;;;;5373134;26;20004;-76
2024/04/12 12:38:01;;;;;;;2.35;2.05;;;54.90;4.00;;;;;;5378213;26;20040;-72
2024/04/12 12:40:30;;;;;;;2.88;2.22;;;54.80;3.50;;;;;;5379631;26;20042;-72
2024/04/12 12:42:57;;;;;;;2.42;2.20;;;54.70;3.70;;;;;;5378036;26;20612;-72
2024/04/12 12:45:24;;;;;;;2.00;1.80;;;54.50;4.40;;;;;;5377445;26;20400;-76
2024/04/12 12:47:53;;;;;;;1.70;1.60;;;54.50;4.40;;;;;;5378300;26;20020;-73
2024/04/12 12:50:20;;;;;;;2.30;2.10;;;54.70;4.10;;;;;;5377338;26;20007;-76
2024/04/12 12:52:49;;;;;;;2.30;2.10;;;54.60;4.60;;;;;;5379487;26;20326;-73
2024/04/12 12:55:23;;;;;;;2.67;2.47;;;55.20;4.30;;;;;;5378190;26;20469;-73
2024/04/12 12:58:09;;;;;;;2.50;2.25;;;55.30;4.30;;;;;;5377727;26;20082;-73
2024/04/12 13:00:42;;;;;;;4.22;2.92;;;55.70;4.80;;;;;;5379369;26;20008;-72
2024/04/12 13:03:12;;;;;;;2.17;1.98;;;55.60;4.20;;;;;;5378075;26;20024;-76
2024/04/12 13:06:06;;;;;;;2.40;2.17;;;55.30;4.40;;;;;;5377972;26;20028;-72
2024/04/12 13:08:35;;;;;;;2.38;2.15;;;55.40;4.50;;;;;;5378363;26;20015;-73
2024/04/12 13:11:04;;;;;;;2.70;2.33;;;55.60;4.40;;;;;;5376818;26;20000;-73
2024/04/12 13:13:46;;;;;;;3.13;2.60;;;55.80;4.10;;;;;;5378304;26;20492;-76
2024/04/12 13:16:15;;;;;;;2.22;2.03;;;55.40;4.40;;;;;;5377314;26;20004;-75
2024/04/12 13:18:45;;;;;;;3.13;2.72;;;55.80;4.00;;;;;;5379547;26;19996;-73
2024/04/12 13:21:12;;;;;;;2.60;2.40;;;56.00;4.20;;;;;;5376861;26;20356;-75
2024/04/12 13:23:40;;;;;;;2.78;2.47;;;55.90;3.70;;;;;;5348740;26;20008;-73
2024/04/12 13:26:31;;;;;;;2.83;2.55;;;55.70;4.10;;;;;;5375899;26;20000;-76
2024/04/12 13:28:59;;;;;;;3.05;2.72;;;55.80;4.00;;;;;;5372050;26;20012;-72
2024/04/12 13:31:29;;;;;;;3.20;2.90;;;56.10;4.30;;;;;;5367488;26;20075;-73
2024/04/12 13:33:56;;;;;;;2.95;2.65;;;56.00;3.80;;;;;;5368685;26;20008;-72
2024/04/12 13:36:24;;;;;;;2.92;2.63;;;55.80;4.00;;;;;;5368651;26;19996;-73
2024/04/12 13:41:40;;;;;;;14.18;3.28;;;55.40;4.60;;;;;;5341158;26;20479;-76
2024/04/12 13:44:08;;;;;;;3.08;2.78;;;55.50;4.20;;;;;;5367023;26;20009;-73
2024/04/12 13:52:08;;;;;;;3.20;2.90;;;55.40;4.10;;;;;;5378716;26;20081;-76
2024/04/12 13:54:37;;;;;;;3.25;2.95;;;55.30;4.10;;;;;;5379245;26;20453;-76
2024/04/12 13:57:04;;;;;;;2.88;2.58;;;55.60;4.10;;;;;;5355625;26;20013;-75
2024/04/12 13:59:33;;;;;;;3.17;2.88;;;55.60;4.10;;;;;;5342422;26;20463;-75
2024/04/12 14:02:03;;;;;;;3.22;2.92;;;55.20;4.10;;;;;;5354090;26;20009;-73
2024/04/12 14:04:30;;;;;;;2.72;2.42;;;55.60;4.30;;;;;;5342722;26;20005;-76
2024/04/12 14:06:58;;;;;;;2.95;2.65;;;55.50;4.10;;;;;;5343710;26;20019;-73
2024/04/12 14:09:24;;;;;;;3.28;2.88;;;55.00;4.50;;;;;;5341037;26;20037;-72
2024/04/12 14:11:52;;;;;;;1.98;1.77;;;54.80;4.10;;;;;;5341302;26;19997;-73
2024/04/12 14:14:20;;;;;;;2.88;2.58;;;54.80;4.30;;;;;;5343555;26;20009;-73
2024/04/12 14:16:47;;;;;;;2.15;1.95;;;55.00;4.70;;;;;;5343485;26;20000;-76
2024/04/12 14:19:18;;;;;;;1.88;1.70;;;54.80;4.20;;;;;;5343655;26;20004;-73
2024/04/12 14:21:46;;;;;;;2.42;2.22;;;54.70;4.30;;;;;;5341701;26;20504;-76
2024/04/12 14:27:01;;;;;;;5.45;2.70;;;54.30;4.50;;;;;;5342039;26;20576;-76
2024/04/12 14:29:46;;;;;;;2.42;2.15;;;54.00;4.60;;;;;;5343636;26;20016;-76
2024/04/12 14:32:15;;;;;;;3.05;2.28;;;53.90;4.60;;;;;;5342957;26;20008;-76
2024/04/12 14:34:44;;;;;;;2.30;2.10;;;54.00;4.80;;;;;;5342113;26;20405;-76
2024/04/12 14:37:14;;;;;;;2.10;1.90;;;53.80;4.70;;;;;;5345484;26;20016;-73
2024/04/12 14:39:42;;;;;;;1.92;1.73;;;53.50;4.60;;;;;;5358002;26;20100;-73
2024/04/12 14:42:15;;;;;;;2.13;1.92;;;53.30;4.70;;;;;;5348667;26;20398;-73
2024/04/12 14:44:43;;;;;;;2.00;1.80;;;53.00;5.30;;;;;;5368055;26;20011;-72
2024/04/12 14:47:11;;;;;;;2.42;1.92;;;52.70;5.20;;;;;;5366942;26;20007;-76
2024/04/12 14:49:38;;;;;;;2.47;2.22;;;52.70;4.90;;;;;;5378151;26;20011;-74
2024/04/12 14:52:11;;;;;;;2.20;2.00;;;52.60;5.00;;;;;;5357140;26;20000;-76
2024/04/12 14:57:24;;;;;;;1.85;1.70;;;52.00;5.80;;;;;;5371149;26;20079;-73
2024/04/12 14:59:50;;;;;;;1.98;1.77;;;51.80;5.10;;;;;;5379647;26;20008;-73
2024/04/12 15:48:50;;;;;;;0.70;0.70;;;46.20;7.90;;;;;;5380380;26;20340;-76
2024/04/12 15:51:17;;;;;;;1.83;1.20;;;45.70;8.20;;;;;;5379559;26;20000;-75
2024/04/12 15:53:46;;;;;;;0.93;0.85;;;45.30;8.50;;;;;;5372441;26;20020;-72
2024/04/12 16:12:28;;;;;;;0.85;0.77;;;39.20;12.10;;;;;;5368044;26;20074;-75
2024/04/12 16:14:55;;;;;;;0.68;0.68;;;37.80;12.90;;;;;;5345434;26;20001;-76
2024/04/12 16:17:24;;;;;;;0.73;0.60;;;36.90;13.70;;;;;;5371094;26;20075;-75
2024/04/12 16:19:52;;;;;;;0.40;0.40;;;36.10;14.70;;;;;;5343443;26;20079;-72
2024/04/12 16:22:19;;;;;;;0.80;0.80;;;35.40;15.60;;;;;;5344735;26;20071;-72
2024/04/12 16:24:46;;;;;;;0.50;0.50;;;34.90;16.20;;;;;;5343547;26;20333;-72
2024/04/12 16:27:14;;;;;;;0.30;0.30;;;34.40;16.90;;;;;;5345365;26;20012;-72
2024/04/12 16:29:43;;;;;;;0.40;0.40;;;34.00;17.80;;;;;;5362944;26;20007;-75
2024/04/12 16:32:12;;;;;;;0.77;0.60;;;33.60;17.80;;;;;;5346805;26;20007;-76
2024/04/12 16:34:39;;;;;;;1.35;0.80;;;33.20;17.80;;;;;;5349473;26;20015;-72
2024/04/12 16:37:06;;;;;;;0.77;0.55;;;32.80;18.20;;;;;;5345113;26;20078;-76